US-0297 weather

Kaiser Permanente Medical Center Santa Clara Heliport
Santa Clara, California, United States

Public forecast

Using degrees Fahrenheit for public forecast. Weather courtesy of forecast.io.

Closest aviation weather report (METAR) to Kaiser Permanente Medical Center Santa Clara Heliport

Closest report is Norman Y. Mineta San Jose International Airport, 3.8 nm (7.0 km) ENE. Retrieved 2019/10/16 02:53 UTC (25 minutes ago):

KSJC 160253Z 31009KT 10SM FEW050 16/13 A3002 RMK AO2 SLP166 T01610133 53005

Closest aviation forecast (TAF) to Kaiser Permanente Medical Center Santa Clara Heliport

Closest forecast is Norman Y. Mineta San Jose International Airport, 3.8 nm (7.0 km) ENE. Retrieved 2019-10-16 00:27 UTC (3 hours ago):

TAF KSJC 152325Z 1600/1624 32009KT P6SM SKC FM160400 VRB03KT P6SM SKC FM160900 VRB03KT P6SM FEW010 FEW200 FM161200 VRB03KT P6SM BKN010 FM161700 VRB03KT P6SM SCT010 BKN200 FM161900 29008KT P6SM BKN200